sensor_id;sensor_type;location;lat;lon;timestamp;pressure;altitude;pressure_sealevel;temperature;humidity
60974;BME280;46846;51.528;5.076;2023-05-12T00:00:21;101090.56;;;13.57;73.70
60974;BME280;46846;51.528;5.076;2023-05-12T00:02:46;101095.28;;;13.52;73.46
60974;BME280;46846;51.528;5.076;2023-05-12T00:05:12;101086.38;;;13.51;73.73
60974;BME280;46846;51.528;5.076;2023-05-12T00:07:37;101087.31;;;13.50;73.48
60974;BME280;46846;51.528;5.076;2023-05-12T00:10:03;101086.38;;;13.51;73.82
60974;BME280;46846;51.528;5.076;2023-05-12T00:12:28;101090.94;;;13.49;73.27
60974;BME280;46846;51.528;5.076;2023-05-12T00:14:54;101083.97;;;13.45;73.65
60974;BME280;46846;51.528;5.076;2023-05-12T00:17:19;101092.88;;;13.44;73.80
60974;BME280;46846;51.528;5.076;2023-05-12T00:19:45;101086.63;;;13.45;73.65
60974;BME280;46846;51.528;5.076;2023-05-12T00:22:11;101088.38;;;13.46;73.60
60974;BME280;46846;51.528;5.076;2023-05-12T00:24:36;101087.59;;;13.43;73.98
60974;BME280;46846;51.528;5.076;2023-05-12T00:27:02;101088.63;;;13.40;73.88
60974;BME280;46846;51.528;5.076;2023-05-12T00:29:28;101080.59;;;13.40;73.73
60974;BME280;46846;51.528;5.076;2023-05-12T00:31:54;101088.88;;;13.34;73.90
60974;BME280;46846;51.528;5.076;2023-05-12T00:34:20;101090.47;;;13.38;73.86
60974;BME280;46846;51.528;5.076;2023-05-12T00:36:45;101079.13;;;13.33;73.51
60974;BME280;46846;51.528;5.076;2023-05-12T00:39:11;101076.63;;;13.28;73.81
60974;BME280;46846;51.528;5.076;2023-05-12T00:41:36;101076.56;;;13.30;73.76
60974;BME280;46846;51.528;5.076;2023-05-12T00:44:02;101079.22;;;13.30;73.55
60974;BME280;46846;51.528;5.076;2023-05-12T00:46:27;101081.31;;;13.23;73.89
60974;BME280;46846;51.528;5.076;2023-05-12T00:48:52;101081.41;;;13.20;74.37
60974;BME280;46846;51.528;5.076;2023-05-12T00:51:18;101083.16;;;13.21;74.31
60974;BME280;46846;51.528;5.076;2023-05-12T00:53:44;101080.47;;;13.21;74.01
60974;BME280;46846;51.528;5.076;2023-05-12T00:56:10;101074.47;;;13.16;74.26
60974;BME280;46846;51.528;5.076;2023-05-12T00:58:36;101071.91;;;13.12;74.07
60974;BME280;46846;51.528;5.076;2023-05-12T01:01:01;101073.53;;;13.17;73.94
60974;BME280;46846;51.528;5.076;2023-05-12T01:03:27;101063.69;;;13.17;74.02
60974;BME280;46846;51.528;5.076;2023-05-12T01:06:09;101069.19;;;13.14;73.89
60974;BME280;46846;51.528;5.076;2023-05-12T01:08:37;101064.53;;;13.19;73.85
60974;BME280;46846;51.528;5.076;2023-05-12T01:11:03;101058.34;;;13.17;73.96
60974;BME280;46846;51.528;5.076;2023-05-12T01:13:28;101059.19;;;13.19;74.03
60974;BME280;46846;51.528;5.076;2023-05-12T01:15:55;101058.44;;;13.16;73.98
60974;BME280;46846;51.528;5.076;2023-05-12T01:18:22;101057.44;;;13.18;73.78
60974;BME280;46846;51.528;5.076;2023-05-12T01:20:50;101058.44;;;13.16;73.54
60974;BME280;46846;51.528;5.076;2023-05-12T01:23:18;101053.00;;;13.17;74.05
60974;BME280;46846;51.528;5.076;2023-05-12T01:25:45;101055.81;;;13.14;73.99
60974;BME280;46846;51.528;5.076;2023-05-12T01:28:12;101054.94;;;13.13;74.02
60974;BME280;46846;51.528;5.076;2023-05-12T01:30:39;101053.16;;;13.14;73.82
60974;BME280;46846;51.528;5.076;2023-05-12T01:33:08;101052.34;;;13.12;73.76
60974;BME280;46846;51.528;5.076;2023-05-12T01:35:34;101057.72;;;13.12;74.15
60974;BME280;46846;51.528;5.076;2023-05-12T01:37:59;101055.88;;;13.12;73.80
60974;BME280;46846;51.528;5.076;2023-05-12T01:40:25;101054.41;;;13.05;73.72
60974;BME280;46846;51.528;5.076;2023-05-12T01:42:50;101048.94;;;13.08;73.84
60974;BME280;46846;51.528;5.076;2023-05-12T01:45:16;101055.47;;;13.01;74.09
60974;BME280;46846;51.528;5.076;2023-05-12T01:47:41;101040.19;;;13.05;73.81
60974;BME280;46846;51.528;5.076;2023-05-12T01:50:07;101051.88;;;13.02;73.94
60974;BME280;46846;51.528;5.076;2023-05-12T01:52:33;101051.88;;;13.02;73.79
60974;BME280;46846;51.528;5.076;2023-05-12T01:54:59;101045.78;;;12.98;74.06
60974;BME280;46846;51.528;5.076;2023-05-12T01:57:24;101051.38;;;12.92;74.10
60974;BME280;46846;51.528;5.076;2023-05-12T01:59:49;101053.09;;;12.93;74.32
60974;BME280;46846;51.528;5.076;2023-05-12T02:02:15;101054.97;;;12.91;73.91
60974;BME280;46846;51.528;5.076;2023-05-12T02:04:40;101042.41;;;12.93;74.26
60974;BME280;46846;51.528;5.076;2023-05-12T02:07:06;101047.03;;;12.90;74.29
60974;BME280;46846;51.528;5.076;2023-05-12T02:09:31;101054.03;;;12.92;74.17
60974;BME280;46846;51.528;5.076;2023-05-12T02:11:56;101043.41;;;12.91;74.30
60974;BME280;46846;51.528;5.076;2023-05-12T02:14:22;101038.81;;;12.94;74.04
60974;BME280;46846;51.528;5.076;2023-05-12T02:16:47;101050.56;;;12.90;73.74
60974;BME280;46846;51.528;5.076;2023-05-12T02:19:17;101043.59;;;12.86;74.31
60974;BME280;46846;51.528;5.076;2023-05-12T02:21:43;101039.00;;;12.90;74.12
60974;BME280;46846;51.528;5.076;2023-05-12T02:24:10;101040.00;;;12.87;73.90
60974;BME280;46846;51.528;5.076;2023-05-12T02:26:35;101035.84;;;12.80;74.08
60974;BME280;46846;51.528;5.076;2023-05-12T02:29:01;101023.31;;;12.82;74.63
60974;BME280;46846;51.528;5.076;2023-05-12T02:31:26;101023.19;;;12.85;74.35
60974;BME280;46846;51.528;5.076;2023-05-12T02:33:52;101026.59;;;12.89;73.90
60974;BME280;46846;51.528;5.076;2023-05-12T02:36:17;101023.56;;;12.76;74.15
60974;BME280;46846;51.528;5.076;2023-05-12T02:38:42;101023.63;;;12.74;74.64
60974;BME280;46846;51.528;5.076;2023-05-12T02:41:08;101020.09;;;12.74;74.24
60974;BME280;46846;51.528;5.076;2023-05-12T02:43:33;101008.47;;;12.75;74.52
60974;BME280;46846;51.528;5.076;2023-05-12T02:45:58;101013.72;;;12.76;74.32
60974;BME280;46846;51.528;5.076;2023-05-12T02:48:24;101013.03;;;12.73;74.50
60974;BME280;46846;51.528;5.076;2023-05-12T02:50:49;101017.34;;;12.75;74.23
60974;BME280;46846;51.528;5.076;2023-05-12T02:53:15;101001.25;;;12.77;73.99
60974;BME280;46846;51.528;5.076;2023-05-12T02:55:40;101001.31;;;12.75;74.49
60974;BME280;46846;51.528;5.076;2023-05-12T02:58:06;101000.66;;;12.70;74.48
60974;BME280;46846;51.528;5.076;2023-05-12T03:00:32;100995.13;;;12.75;74.04
60974;BME280;46846;51.528;5.076;2023-05-12T03:02:57;100991.66;;;12.73;74.21
60974;BME280;46846;51.528;5.076;2023-05-12T03:05:22;100991.91;;;12.66;73.97
60974;BME280;46846;51.528;5.076;2023-05-12T03:07:48;100992.75;;;12.67;74.56
60974;BME280;46846;51.528;5.076;2023-05-12T03:10:15;100988.31;;;12.67;74.47
60974;BME280;46846;51.528;5.076;2023-05-12T03:12:40;100986.31;;;12.73;74.37
60974;BME280;46846;51.528;5.076;2023-05-12T03:15:06;100989.91;;;12.71;74.30
60974;BME280;46846;51.528;5.076;2023-05-12T03:17:33;100989.03;;;12.71;73.93
60974;BME280;46846;51.528;5.076;2023-05-12T03:19:58;100989.28;;;12.65;74.13
60974;BME280;46846;51.528;5.076;2023-05-12T03:22:24;100984.09;;;12.62;74.07
60974;BME280;46846;51.528;5.076;2023-05-12T03:24:49;100979.41;;;12.67;74.35
60974;BME280;46846;51.528;5.076;2023-05-12T03:27:15;100989.34;;;12.63;74.07
60974;BME280;46846;51.528;5.076;2023-05-12T03:29:41;100974.41;;;12.59;74.34
60974;BME280;46846;51.528;5.076;2023-05-12T03:32:06;100979.03;;;12.54;74.42
60974;BME280;46846;51.528;5.076;2023-05-12T03:34:32;100975.44;;;12.55;74.53
60974;BME280;46846;51.528;5.076;2023-05-12T03:36:58;100966.50;;;12.56;74.49
60974;BME280;46846;51.528;5.076;2023-05-12T03:39:23;100970.91;;;12.57;74.47
60974;BME280;46846;51.528;5.076;2023-05-12T03:41:49;100966.69;;;12.51;74.20
60974;BME280;46846;51.528;5.076;2023-05-12T03:44:14;100964.91;;;12.52;74.43
60974;BME280;46846;51.528;5.076;2023-05-12T03:46:40;100960.16;;;12.58;74.52
60974;BME280;46846;51.528;5.076;2023-05-12T03:49:05;100959.47;;;12.53;74.47
60974;BME280;46846;51.528;5.076;2023-05-12T03:51:31;100954.16;;;12.53;74.92
60974;BME280;46846;51.528;5.076;2023-05-12T03:53:56;100957.94;;;12.48;74.78
60974;BME280;46846;51.528;5.076;2023-05-12T03:56:21;100962.22;;;12.52;74.73
60974;BME280;46846;51.528;5.076;2023-05-12T03:58:47;100963.28;;;12.48;74.75
60974;BME280;46846;51.528;5.076;2023-05-12T04:01:14;100961.50;;;12.48;74.79
60974;BME280;46846;51.528;5.076;2023-05-12T04:03:39;100959.75;;;12.47;74.38
60974;BME280;46846;51.528;5.076;2023-05-12T04:06:07;100954.22;;;12.52;74.76
60974;BME280;46846;51.528;5.076;2023-05-12T04:08:33;100958.06;;;12.44;74.46
60974;BME280;46846;51.528;5.076;2023-05-12T04:11:00;100964.25;;;12.45;74.82
60974;BME280;46846;51.528;5.076;2023-05-12T04:13:27;100959.66;;;12.49;74.63
60974;BME280;46846;51.528;5.076;2023-05-12T04:15:56;100962.22;;;12.52;74.44
60974;BME280;46846;51.528;5.076;2023-05-12T04:18:23;100958.72;;;12.50;74.66
60974;BME280;46846;51.528;5.076;2023-05-12T04:20:48;100958.06;;;12.44;74.75
60974;BME280;46846;51.528;5.076;2023-05-12T04:23:14;100957.19;;;12.44;74.39
60974;BME280;46846;51.528;5.076;2023-05-12T04:25:40;100958.81;;;12.48;74.33
60974;BME280;46846;51.528;5.076;2023-05-12T04:28:07;100954.34;;;12.49;74.75
60974;BME280;46846;51.528;5.076;2023-05-12T04:30:33;100957.13;;;12.46;74.65
60974;BME280;46846;51.528;5.076;2023-05-12T04:32:58;100957.25;;;12.42;74.27
60974;BME280;46846;51.528;5.076;2023-05-12T04:35:24;100949.06;;;12.47;74.46
60974;BME280;46846;51.528;5.076;2023-05-12T04:37:49;100965.19;;;12.44;74.53
60974;BME280;46846;51.528;5.076;2023-05-12T04:40:15;100957.25;;;12.42;74.41
60974;BME280;46846;51.528;5.076;2023-05-12T04:42:40;100958.31;;;12.38;75.02
60974;BME280;46846;51.528;5.076;2023-05-12T04:45:06;100956.03;;;12.29;74.81
60974;BME280;46846;51.528;5.076;2023-05-12T04:47:32;100963.72;;;12.37;74.90
60974;BME280;46846;51.528;5.076;2023-05-12T04:49:57;100959.63;;;12.28;75.00
60974;BME280;46846;51.528;5.076;2023-05-12T04:52:22;100960.53;;;12.27;74.80
60974;BME280;46846;51.528;5.076;2023-05-12T04:54:49;100952.41;;;12.30;74.67
60974;BME280;46846;51.528;5.076;2023-05-12T04:57:14;100957.75;;;12.30;74.81
60974;BME280;46846;51.528;5.076;2023-05-12T04:59:40;100962.03;;;12.34;74.62
60974;BME280;46846;51.528;5.076;2023-05-12T05:02:07;100966.56;;;12.32;74.56
60974;BME280;46846;51.528;5.076;2023-05-12T05:04:33;100970.53;;;12.22;74.95
60974;BME280;46846;51.528;5.076;2023-05-12T05:06:58;100962.41;;;12.25;74.81
60974;BME280;46846;51.528;5.076;2023-05-12T05:09:23;100974.06;;;12.22;74.95
60974;BME280;46846;51.528;5.076;2023-05-12T05:11:48;100970.63;;;12.19;74.95
60974;BME280;46846;51.528;5.076;2023-05-12T05:14:14;100976.81;;;12.21;74.91
60974;BME280;46846;51.528;5.076;2023-05-12T05:16:39;100979.47;;;12.21;74.97
60974;BME280;46846;51.528;5.076;2023-05-12T05:19:04;100977.97;;;12.13;75.43
60974;BME280;46846;51.528;5.076;2023-05-12T05:21:30;100980.66;;;12.13;75.49
60974;BME280;46846;51.528;5.076;2023-05-12T05:23:55;100975.22;;;12.15;75.26
60974;BME280;46846;51.528;5.076;2023-05-12T05:26:21;100985.13;;;12.11;75.45
60974;BME280;46846;51.528;5.076;2023-05-12T05:28:46;100986.03;;;12.12;75.56
60974;BME280;46846;51.528;5.076;2023-05-12T05:31:13;100976.38;;;12.08;75.29
60974;BME280;46846;51.528;5.076;2023-05-12T05:33:39;100983.31;;;12.13;75.45
60974;BME280;46846;51.528;5.076;2023-05-12T05:36:04;100989.31;;;12.19;75.12
60974;BME280;46846;51.528;5.076;2023-05-12T05:38:30;100986.78;;;12.15;75.08
60974;BME280;46846;51.528;5.076;2023-05-12T05:40:56;100980.66;;;12.13;74.91
60974;BME280;46846;51.528;5.076;2023-05-12T05:43:22;100984.06;;;12.17;75.14
60974;BME280;46846;51.528;5.076;2023-05-12T05:45:47;100983.97;;;12.19;75.23
60974;BME280;46846;51.528;5.076;2023-05-12T05:48:16;100986.59;;;12.20;74.70
60974;BME280;46846;51.528;5.076;2023-05-12T05:50:41;100992.22;;;12.12;74.99
60974;BME280;46846;51.528;5.076;2023-05-12T05:53:06;100999.19;;;12.16;75.40
60974;BME280;46846;51.528;5.076;2023-05-12T05:55:32;100994.81;;;12.14;75.20
60974;BME280;46846;51.528;5.076;2023-05-12T05:57:57;100994.72;;;12.17;75.09
60974;BME280;46846;51.528;5.076;2023-05-12T06:00:23;100994.53;;;12.22;75.41
60974;BME280;46846;51.528;5.076;2023-05-12T06:02:48;100999.75;;;12.25;74.91
60974;BME280;46846;51.528;5.076;2023-05-12T06:05:14;101010.31;;;12.28;75.15
60974;BME280;46846;51.528;5.076;2023-05-12T06:07:39;101012.56;;;12.15;75.04
60974;BME280;46846;51.528;5.076;2023-05-12T06:10:05;101008.91;;;12.17;74.92
60974;BME280;46846;51.528;5.076;2023-05-12T06:12:31;101013.97;;;12.01;75.04
60974;BME280;46846;51.528;5.076;2023-05-12T06:14:56;101006.63;;;12.08;74.90
60974;BME280;46846;51.528;5.076;2023-05-12T06:17:21;101015.41;;;12.10;75.13
60974;BME280;46846;51.528;5.076;2023-05-12T06:19:47;101023.38;;;12.12;74.93
60974;BME280;46846;51.528;5.076;2023-05-12T06:22:14;101016.22;;;12.12;75.12
60974;BME280;46846;51.528;5.076;2023-05-12T06:24:40;101016.16;;;12.14;75.22
60974;BME280;46846;51.528;5.076;2023-05-12T06:27:06;101014.91;;;12.24;75.16
60974;BME280;46846;51.528;5.076;2023-05-12T06:29:32;101026.47;;;12.23;74.62
60974;BME280;46846;51.528;5.076;2023-05-12T06:31:57;101023.59;;;12.06;74.90
60974;BME280;46846;51.528;5.076;2023-05-12T06:34:23;101027.94;;;12.08;74.96
60974;BME280;46846;51.528;5.076;2023-05-12T06:36:48;101026.59;;;11.96;75.39
60974;BME280;46846;51.528;5.076;2023-05-12T06:39:14;101029.69;;;12.09;74.82
60974;BME280;46846;51.528;5.076;2023-05-12T06:41:39;101022.25;;;12.17;75.92
60974;BME280;46846;51.528;5.076;2023-05-12T06:44:04;101029.50;;;12.14;74.75
60974;BME280;46846;51.528;5.076;2023-05-12T06:46:31;101026.59;;;12.20;75.46
60974;BME280;46846;51.528;5.076;2023-05-12T06:48:56;101026.56;;;12.22;75.19
60974;BME280;46846;51.528;5.076;2023-05-12T06:51:22;101030.97;;;12.23;75.21
60974;BME280;46846;51.528;5.076;2023-05-12T06:53:47;101038.31;;;12.16;74.68
60974;BME280;46846;51.528;5.076;2023-05-12T06:56:13;101035.91;;;12.10;75.27
60974;BME280;46846;51.528;5.076;2023-05-12T06:58:42;101037.69;;;12.09;75.27
60974;BME280;46846;51.528;5.076;2023-05-12T07:01:07;101046.63;;;12.08;75.24
60974;BME280;46846;51.528;5.076;2023-05-12T07:03:33;101047.91;;;12.22;76.22
60974;BME280;46846;51.528;5.076;2023-05-12T07:05:58;101050.75;;;12.17;74.94
60974;BME280;46846;51.528;5.076;2023-05-12T07:08:23;101052.19;;;12.26;75.41
60974;BME280;46846;51.528;5.076;2023-05-12T07:10:49;101052.41;;;12.20;75.07
60974;BME280;46846;51.528;5.076;2023-05-12T07:13:14;101049.69;;;12.21;74.94
60974;BME280;46846;51.528;5.076;2023-05-12T07:15:40;101052.13;;;12.27;75.53
60974;BME280;46846;51.528;5.076;2023-05-12T07:18:05;101059.25;;;12.27;76.55
60974;BME280;46846;51.528;5.076;2023-05-12T07:20:31;101058.66;;;12.42;79.20
60974;BME280;46846;51.528;5.076;2023-05-12T07:22:56;101055.53;;;12.31;75.39
60974;BME280;46846;51.528;5.076;2023-05-12T07:25:22;101053.44;;;12.39;78.67
60974;BME280;46846;51.528;5.076;2023-05-12T07:27:47;101059.19;;;12.28;76.25
60974;BME280;46846;51.528;5.076;2023-05-12T07:30:13;101059.16;;;12.30;76.88
60974;BME280;46846;51.528;5.076;2023-05-12T07:32:38;101064.06;;;12.41;79.43
60974;BME280;46846;51.528;5.076;2023-05-12T07:35:04;101053.28;;;12.44;81.58
60974;BME280;46846;51.528;5.076;2023-05-12T07:37:29;101060.00;;;12.30;79.25
60974;BME280;46846;51.528;5.076;2023-05-12T07:39:55;101075.50;;;12.44;81.84
60974;BME280;46846;51.528;5.076;2023-05-12T07:42:21;101067.13;;;12.54;82.05
60974;BME280;46846;51.528;5.076;2023-05-12T07:44:46;101061.94;;;12.51;79.95
60974;BME280;46846;51.528;5.076;2023-05-12T07:47:12;101059.06;;;12.55;80.45
60974;BME280;46846;51.528;5.076;2023-05-12T07:49:37;101070.53;;;12.35;77.84
60974;BME280;46846;51.528;5.076;2023-05-12T07:52:02;101073.63;;;12.47;79.79
60974;BME280;46846;51.528;5.076;2023-05-12T07:54:28;101070.09;;;12.46;78.45
60974;BME280;46846;51.528;5.076;2023-05-12T07:56:53;101071.72;;;12.50;79.58
60974;BME280;46846;51.528;5.076;2023-05-12T07:59:18;101069.22;;;12.46;80.17
60974;BME280;46846;51.528;5.076;2023-05-12T08:01:44;101081.41;;;12.53;81.00
60974;BME280;46846;51.528;5.076;2023-05-12T08:04:09;101083.38;;;12.48;79.36
60974;BME280;46846;51.528;5.076;2023-05-12T08:06:35;101086.00;;;12.49;78.98
60974;BME280;46846;51.528;5.076;2023-05-12T08:09:00;101081.50;;;12.50;79.20
60974;BME280;46846;51.528;5.076;2023-05-12T08:11:25;101092.94;;;12.53;79.22
60974;BME280;46846;51.528;5.076;2023-05-12T08:13:51;101100.91;;;12.55;79.01
60974;BME280;46846;51.528;5.076;2023-05-12T08:16:17;101091.09;;;12.55;79.19
60974;BME280;46846;51.528;5.076;2023-05-12T08:18:42;101099.03;;;12.57;78.46
60974;BME280;46846;51.528;5.076;2023-05-12T08:21:08;101101.41;;;12.65;78.10
60974;BME280;46846;51.528;5.076;2023-05-12T08:23:33;101091.34;;;12.71;78.34
60974;BME280;46846;51.528;5.076;2023-05-12T08:25:59;101102.13;;;12.70;77.92
60974;BME280;46846;51.528;5.076;2023-05-12T08:28:24;101101.00;;;12.76;76.80
60974;BME280;46846;51.528;5.076;2023-05-12T08:30:49;101102.78;;;12.75;76.11
60974;BME280;46846;51.528;5.076;2023-05-12T08:33:15;101098.09;;;12.82;77.73
60974;BME280;46846;51.528;5.076;2023-05-12T08:35:40;101101.31;;;12.90;78.40
60974;BME280;46846;51.528;5.076;2023-05-12T08:38:06;101102.34;;;12.86;77.17
60974;BME280;46846;51.528;5.076;2023-05-12T08:40:37;101104.00;;;12.90;77.50
60974;BME280;46846;51.528;5.076;2023-05-12T08:45:30;101099.06;;;13.02;76.90
60974;BME280;46846;51.528;5.076;2023-05-12T08:47:56;101103.63;;;12.99;76.25
60974;BME280;46846;51.528;5.076;2023-05-12T08:50:23;101114.25;;;13.01;76.05
60974;BME280;46846;51.528;5.076;2023-05-12T08:52:49;101120.34;;;13.05;75.49
60974;BME280;46846;51.528;5.076;2023-05-12T08:55:15;101124.56;;;13.10;75.84
60974;BME280;46846;51.528;5.076;2023-05-12T08:57:42;101122.56;;;13.16;75.82
60974;BME280;46846;51.528;5.076;2023-05-12T09:00:10;101132.38;;;13.15;75.50
60974;BME280;46846;51.528;5.076;2023-05-12T09:02:38;101128.66;;;13.19;75.60
60974;BME280;46846;51.528;5.076;2023-05-12T09:05:08;101122.94;;;13.29;74.85
60974;BME280;46846;51.528;5.076;2023-05-12T09:07:35;101124.56;;;13.33;75.99
60974;BME280;46846;51.528;5.076;2023-05-12T09:10:02;101129.69;;;13.37;75.48
60974;BME280;46846;51.528;5.076;2023-05-12T09:12:30;101121.59;;;13.39;75.47
60974;BME280;46846;51.528;5.076;2023-05-12T09:15:06;101118.88;;;13.40;75.25
60974;BME280;46846;51.528;5.076;2023-05-12T09:17:33;101124.09;;;13.44;75.41
60974;BME280;46846;51.528;5.076;2023-05-12T09:19:59;101123.81;;;13.51;74.86
60974;BME280;46846;51.528;5.076;2023-05-12T09:22:32;101124.41;;;13.58;74.72
60974;BME280;46846;51.528;5.076;2023-05-12T09:24:59;101126.28;;;13.56;75.36
60974;BME280;46846;51.528;5.076;2023-05-12T09:27:25;101126.22;;;13.58;74.50
60974;BME280;46846;51.528;5.076;2023-05-12T09:29:51;101133.03;;;13.65;74.28
60974;BME280;46846;51.528;5.076;2023-05-12T09:32:17;101124.81;;;13.70;74.06
60974;BME280;46846;51.528;5.076;2023-05-12T09:34:42;101124.22;;;13.63;74.50
60974;BME280;46846;51.528;5.076;2023-05-12T09:37:08;101120.94;;;13.77;74.81
60974;BME280;46846;51.528;5.076;2023-05-12T09:39:34;101127.44;;;13.71;75.06
60974;BME280;46846;51.528;5.076;2023-05-12T09:42:00;101125.28;;;13.79;74.64
60974;BME280;46846;51.528;5.076;2023-05-12T09:44:26;101133.97;;;13.85;73.81
60974;BME280;46846;51.528;5.076;2023-05-12T09:46:54;101130.28;;;13.87;73.94
60974;BME280;46846;51.528;5.076;2023-05-12T09:49:23;101135.59;;;13.89;73.17
60974;BME280;46846;51.528;5.076;2023-05-12T09:51:54;101130.81;;;13.95;73.10
60974;BME280;46846;51.528;5.076;2023-05-12T09:54:27;101130.66;;;14.00;73.95
60974;BME280;46846;51.528;5.076;2023-05-12T09:56:57;101133.97;;;14.05;72.85
60974;BME280;46846;51.528;5.076;2023-05-12T09:59:24;101132.69;;;14.14;72.51
60974;BME280;46846;51.528;5.076;2023-05-12T10:02:00;101129.97;;;14.16;72.77
60974;BME280;46846;51.528;5.076;2023-05-12T10:04:27;101134.09;;;14.23;72.22
60974;BME280;46846;51.528;5.076;2023-05-12T10:06:54;101136.47;;;14.29;71.25
60974;BME280;46846;51.528;5.076;2023-05-12T10:09:29;101133.63;;;14.34;72.16
60974;BME280;46846;51.528;5.076;2023-05-12T10:11:56;101133.63;;;14.34;70.97
60974;BME280;46846;51.528;5.076;2023-05-12T10:14:23;101138.25;;;14.30;72.10
60974;BME280;46846;51.528;5.076;2023-05-12T10:16:49;101134.41;;;14.36;71.77
60974;BME280;46846;51.528;5.076;2023-05-12T10:19:16;101138.59;;;14.42;70.37
60974;BME280;46846;51.528;5.076;2023-05-12T10:21:42;101137.66;;;14.43;70.62
60974;BME280;46846;51.528;5.076;2023-05-12T10:24:13;101143.00;;;14.43;72.29
60974;BME280;46846;51.528;5.076;2023-05-12T10:26:40;101141.28;;;14.42;69.69
60974;BME280;46846;51.528;5.076;2023-05-12T10:29:06;101138.66;;;14.40;73.12
60974;BME280;46846;51.528;5.076;2023-05-12T10:31:33;101133.91;;;14.47;68.89
60974;BME280;46846;51.528;5.076;2023-05-12T10:34:01;101140.72;;;14.54;71.88
60974;BME280;46846;51.528;5.076;2023-05-12T10:36:27;101144.75;;;14.63;70.34
60974;BME280;46846;51.528;5.076;2023-05-12T10:38:53;101140.22;;;14.65;72.25
60974;BME280;46846;51.528;5.076;2023-05-12T10:41:33;101146.13;;;14.73;71.63
60974;BME280;46846;51.528;5.076;2023-05-12T10:43:59;101146.78;;;14.79;69.14
60974;BME280;46846;51.528;5.076;2023-05-12T10:46:25;101148.13;;;14.87;67.76
60974;BME280;46846;51.528;5.076;2023-05-12T10:48:53;101146.16;;;14.91;67.94
60974;BME280;46846;51.528;5.076;2023-05-12T10:51:21;101143.38;;;14.94;69.40
60974;BME280;46846;51.528;5.076;2023-05-12T10:53:51;101146.53;;;15.02;69.08
60974;BME280;46846;51.528;5.076;2023-05-12T10:56:24;101146.38;;;15.06;68.58
60974;BME280;46846;51.528;5.076;2023-05-12T10:59:13;101146.81;;;15.15;66.02
60974;BME280;46846;51.528;5.076;2023-05-12T11:01:42;101145.56;;;15.23;68.60
60974;BME280;46846;51.528;5.076;2023-05-12T11:04:15;101148.19;;;15.24;67.01
60974;BME280;46846;51.528;5.076;2023-05-12T11:06:43;101148.53;;;15.16;65.72
60974;BME280;46846;51.528;5.076;2023-05-12T11:09:10;101141.47;;;15.33;67.31
60974;BME280;46846;51.528;5.076;2023-05-12T11:11:36;101147.66;;;15.53;65.05
60974;BME280;46846;51.528;5.076;2023-05-12T11:14:01;101155.53;;;15.56;64.08
60974;BME280;46846;51.528;5.076;2023-05-12T11:16:27;101156.19;;;15.61;65.04
60974;BME280;46846;51.528;5.076;2023-05-12T11:19:02;101149.56;;;15.68;63.27
60974;BME280;46846;51.528;5.076;2023-05-12T11:21:28;101159.34;;;15.69;63.89
60974;BME280;46846;51.528;5.076;2023-05-12T11:23:54;101151.06;;;15.74;62.36
60974;BME280;46846;51.528;5.076;2023-05-12T11:26:19;101166.53;;;15.69;68.55
60974;BME280;46846;51.528;5.076;2023-05-12T11:28:45;101169.75;;;15.58;68.68
60974;BME280;46846;51.528;5.076;2023-05-12T11:31:19;101159.03;;;15.76;67.08
60974;BME280;46846;51.528;5.076;2023-05-12T11:33:45;101161.72;;;15.76;65.83
60974;BME280;46846;51.528;5.076;2023-05-12T11:36:10;101163.13;;;15.83;65.20
60974;BME280;46846;51.528;5.076;2023-05-12T11:38:37;101166.47;;;15.88;64.86
60974;BME280;46846;51.528;5.076;2023-05-12T11:41:03;101175.78;;;15.98;62.27
60974;BME280;46846;51.528;5.076;2023-05-12T11:43:28;101177.38;;;16.03;61.76
60974;BME280;46846;51.528;5.076;2023-05-12T11:45:54;101175.53;;;16.03;66.72
60974;BME280;46846;51.528;5.076;2023-05-12T11:48:20;101180.78;;;16.06;62.30
60974;BME280;46846;51.528;5.076;2023-05-12T11:50:49;101177.19;;;16.06;63.25
60974;BME280;46846;51.528;5.076;2023-05-12T11:53:17;101183.34;;;16.08;67.17
60974;BME280;46846;51.528;5.076;2023-05-12T11:55:49;101188.72;;;16.08;62.11
60974;BME280;46846;51.528;5.076;2023-05-12T11:58:20;101184.75;;;16.15;60.15
60974;BME280;46846;51.528;5.076;2023-05-12T12:00:46;101192.69;;;16.18;60.82
60974;BME280;46846;51.528;5.076;2023-05-12T12:03:14;101197.88;;;16.21;64.40
60974;BME280;46846;51.528;5.076;2023-05-12T12:05:41;101206.00;;;16.20;62.73
60974;BME280;46846;51.528;5.076;2023-05-12T12:08:13;101209.38;;;16.23;65.03
60974;BME280;46846;51.528;5.076;2023-05-12T12:10:43;101193.84;;;16.30;63.73
60974;BME280;46846;51.528;5.076;2023-05-12T12:13:09;101196.28;;;16.35;61.29
60974;BME280;46846;51.528;5.076;2023-05-12T12:15:34;101200.53;;;16.39;64.39
60974;BME280;46846;51.528;5.076;2023-05-12T12:18:00;101201.22;;;16.43;58.69
60974;BME280;46846;51.528;5.076;2023-05-12T12:20:25;101199.09;;;16.49;60.07
60974;BME280;46846;51.528;5.076;2023-05-12T12:22:51;101206.03;;;16.53;61.37
60974;BME280;46846;51.528;5.076;2023-05-12T12:25:17;101203.25;;;16.55;63.75
60974;BME280;46846;51.528;5.076;2023-05-12T12:27:43;101212.97;;;16.58;60.75
60974;BME280;46846;51.528;5.076;2023-05-12T12:30:09;101211.06;;;16.60;63.84
60974;BME280;46846;51.528;5.076;2023-05-12T12:32:35;101211.41;;;16.53;67.00
60974;BME280;46846;51.528;5.076;2023-05-12T12:35:00;101214.72;;;16.59;66.72
60974;BME280;46846;51.528;5.076;2023-05-12T12:37:28;101219.44;;;16.71;62.96
60974;BME280;46846;51.528;5.076;2023-05-12T12:39:53;101226.22;;;16.78;58.37
60974;BME280;46846;51.528;5.076;2023-05-12T12:42:19;101228.56;;;16.85;60.60
60974;BME280;46846;51.528;5.076;2023-05-12T12:44:44;101225.88;;;16.85;57.04
60974;BME280;46846;51.528;5.076;2023-05-12T12:47:12;101235.75;;;16.84;62.14